Time;durP1;ratioP1;P1;durP2;ratioP2;P2;SDS_P1;SDS_P2;PMS_P1;PMS_P2;Temp;Humidity;BMP_temperature;BMP_pressure;BME280_temperature;BME280_humidity;BME280_pressure;Samples;Min_cycle;Max_cycle;Signal;HPM_P1;HPM_P2
2022/07/17 00:00:42;;;;;;;9.40;2.65;;;;;;;14.87;42.28;101885.56;5012131;28;20066;-66
2022/07/17 00:03:10;;;;;;;5.60;1.50;;;;;;;14.86;42.41;101896.56;5011596;28;20077;-66
2022/07/17 00:05:37;;;;;;;5.80;1.40;;;;;;;14.84;42.44;101893.16;5014525;28;20457;-66
2022/07/17 00:08:08;;;;;;;14.15;2.50;;;;;;;14.77;42.55;101890.25;5015210;28;20077;-67
2022/07/17 00:10:36;;;;;;;6.13;1.27;;;;;;;14.79;42.73;101890.09;5015441;28;20050;-66
2022/07/17 00:13:04;;;;;;;7.28;1.63;;;;;;;14.72;42.70;101895.28;5014909;28;20049;-66
2022/07/17 00:15:30;;;;;;;11.05;1.95;;;;;;;14.74;42.76;101891.44;5015325;28;20073;-66
2022/07/17 00:17:58;;;;;;;8.77;1.50;;;;;;;14.67;42.90;101892.16;5014787;28;20128;-67
2022/07/17 00:20:27;;;;;;;8.10;1.75;;;;;;;14.62;43.06;101891.81;5015072;28;20144;-67
2022/07/17 00:22:54;;;;;;;10.88;2.20;;;;;;;14.60;43.08;101893.81;5015005;28;20125;-67
2022/07/17 00:25:22;;;;;;;7.82;1.60;;;;;;;14.61;43.00;101898.22;5014849;28;20077;-66
2022/07/17 00:27:49;;;;;;;11.82;2.45;;;;;;;14.52;43.27;101889.22;5014680;28;20048;-66
2022/07/17 00:30:16;;;;;;;14.20;1.40;;;;;;;14.50;43.34;101896.63;5015292;28;20137;-66
2022/07/17 00:32:43;;;;;;;9.90;2.05;;;;;;;14.47;43.50;101897.78;5014415;28;20053;-67
2022/07/17 00:35:11;;;;;;;9.07;1.98;;;;;;;14.46;43.47;101897.94;5015005;28;20566;-66
2022/07/17 00:37:44;;;;;;;8.57;1.90;;;;;;;14.49;43.34;101897.63;5014894;28;20474;-67
2022/07/17 00:40:13;;;;;;;7.60;1.80;;;;;;;14.38;43.55;101897.88;5014778;28;20057;-66
2022/07/17 00:42:42;;;;;;;9.27;2.10;;;;;;;14.33;43.65;101894.81;5014733;28;20069;-67
2022/07/17 00:45:10;;;;;;;8.15;1.60;;;;;;;14.27;43.94;101896.28;5014659;28;20053;-67
2022/07/17 00:47:58;;;;;;;6.85;1.50;;;;;;;14.23;43.94;101897.59;5014444;28;20223;-66
2022/07/17 00:50:45;;;;;;;8.70;1.50;;;;;;;14.15;44.16;101894.81;5014457;28;20128;-66
2022/07/17 00:53:11;;;;;;;8.38;1.67;;;;;;;14.16;44.17;101891.13;5013614;28;20482;-67
2022/07/17 00:55:40;;;;;;;8.55;2.17;;;;;;;14.15;44.38;101892.97;5013577;28;20074;-67
2022/07/17 00:58:12;;;;;;;12.23;3.30;;;;;;;14.08;44.32;101891.91;5014208;28;20048;-67
2022/07/17 01:00:38;;;;;;;6.18;1.80;;;;;;;14.00;44.41;101889.13;5013526;28;20536;-66
2022/07/17 01:03:05;;;;;;;10.38;1.60;;;;;;;14.05;44.33;101898.47;5012774;28;20128;-66
2022/07/17 01:09:19;;;;;;;9.63;1.83;;;;;;;13.86;44.89;101892.34;5013673;28;20064;-65
2022/07/17 01:11:46;;;;;;;15.80;1.90;;;;;;;13.87;44.89;101886.78;5012772;28;20045;-65
2022/07/17 01:14:12;;;;;;;9.70;2.40;;;;;;;13.86;44.82;101890.50;5013220;28;20061;-66
2022/07/17 01:16:40;;;;;;;7.57;1.88;;;;;;;13.82;44.89;101891.81;5012383;28;20542;-66
2022/07/17 01:19:07;;;;;;;8.70;1.70;;;;;;;13.77;45.08;101886.03;5013382;28;20455;-66
2022/07/17 01:21:39;;;;;;;8.23;1.63;;;;;;;13.73;45.19;101888.13;5013638;28;20530;-66
2022/07/17 01:24:06;;;;;;;12.93;1.85;;;;;;;13.72;45.20;101891.84;5013819;28;20130;-66
2022/07/17 01:26:33;;;;;;;6.32;1.33;;;;;;;13.66;45.26;101887.06;5011805;28;20054;-66
2022/07/17 01:29:00;;;;;;;8.95;1.50;;;;;;;13.61;45.53;101883.13;5013393;28;20080;-66
2022/07/17 01:31:26;;;;;;;10.07;1.80;;;;;;;13.55;45.68;101890.81;5011949;28;20106;-66
2022/07/17 01:33:53;;;;;;;7.43;2.00;;;;;;;13.49;45.79;101890.56;5013395;28;20100;-66
2022/07/17 01:36:24;;;;;;;11.35;1.92;;;;;;;13.52;45.63;101895.66;5013578;28;20502;-66
2022/07/17 01:38:51;;;;;;;10.20;1.63;;;;;;;13.48;45.72;101895.13;5013019;28;20049;-67
2022/07/17 01:41:17;;;;;;;6.00;1.30;;;;;;;13.41;45.93;101887.78;5013318;28;20124;-66
2022/07/17 01:43:44;;;;;;;12.48;1.65;;;;;;;13.40;46.06;101896.88;5012149;28;20133;-67
2022/07/17 01:46:10;;;;;;;4.70;1.33;;;;;;;13.27;46.05;101891.81;5012889;28;20054;-67
2022/07/17 01:48:37;;;;;;;9.98;1.85;;;;;;;13.29;46.18;101888.00;5012698;28;20633;-67
2022/07/17 01:51:04;;;;;;;5.10;1.40;;;;;;;13.26;46.37;101882.91;5010405;28;20222;-65
2022/07/17 01:53:30;;;;;;;13.68;1.55;;;;;;;13.24;46.16;101881.34;5011332;28;20088;-66
2022/07/17 01:55:57;;;;;;;8.25;1.80;;;;;;;13.24;46.44;101881.34;5012637;28;20049;-66
2022/07/17 01:58:24;;;;;;;7.60;1.83;;;;;;;13.20;46.68;101891.56;5012741;28;20050;-66
2022/07/17 02:00:51;;;;;;;11.02;1.92;;;;;;;13.19;46.78;101887.19;5013700;28;20069;-66
2022/07/17 02:03:18;;;;;;;7.97;1.70;;;;;;;13.21;46.85;101884.34;5012356;28;20464;-66
2022/07/17 02:05:44;;;;;;;4.97;1.40;;;;;;;13.25;46.80;101886.59;5012094;28;20443;-66
2022/07/17 02:08:11;;;;;;;7.10;1.85;;;;;;;13.17;46.89;101885.63;5012962;28;20081;-66
2022/07/17 02:10:38;;;;;;;9.32;1.92;;;;;;;13.10;47.00;101890.78;5011888;28;20102;-66
2022/07/17 02:13:04;;;;;;;9.18;1.85;;;;;;;13.09;47.18;101883.69;5011667;28;20132;-66
2022/07/17 02:15:31;;;;;;;7.30;1.70;;;;;;;13.10;47.06;101885.38;5011713;28;20661;-66
2022/07/17 02:17:58;;;;;;;8.10;1.48;;;;;;;13.01;47.40;101887.13;5012617;28;20048;-66
2022/07/17 02:20:25;;;;;;;9.02;1.80;;;;;;;12.96;47.47;101881.31;5012444;28;20045;-66
2022/07/17 02:22:52;;;;;;;8.90;1.98;;;;;;;12.98;47.40;101876.66;5012943;28;20544;-66
2022/07/17 02:25:19;;;;;;;7.32;1.70;;;;;;;12.98;47.57;101881.19;5011036;28;20136;-66
2022/07/17 02:27:45;;;;;;;10.07;2.15;;;;;;;12.90;47.45;101884.59;5010186;28;20057;-66
2022/07/17 02:30:14;;;;;;;9.05;1.50;;;;;;;12.94;47.52;101882.47;5011485;28;20129;-66
2022/07/17 02:32:42;;;;;;;10.85;2.00;;;;;;;12.87;47.62;101884.91;5011954;28;20072;-66
2022/07/17 02:35:10;;;;;;;11.07;2.10;;;;;;;12.82;47.82;101876.41;5012094;28;20137;-66
2022/07/17 02:37:38;;;;;;;11.20;2.13;;;;;;;12.80;47.93;101879.28;5012034;28;20045;-66
2022/07/17 02:40:05;;;;;;;11.00;2.13;;;;;;;12.78;48.06;101883.09;5012144;28;20073;-67
2022/07/17 02:42:32;;;;;;;8.30;1.80;;;;;;;12.71;48.17;101885.50;5012158;28;20124;-66
2022/07/17 02:44:59;;;;;;;7.50;1.60;;;;;;;12.68;48.44;101888.47;5010059;28;20121;-66
2022/07/17 02:47:33;;;;;;;8.50;1.70;;;;;;;12.72;48.38;101889.03;5012051;28;20128;-66
2022/07/17 02:50:03;;;;;;;13.30;2.10;;;;;;;12.76;48.03;101895.84;5011530;28;20134;-66
2022/07/17 02:52:29;;;;;;;14.38;2.10;;;;;;;12.64;48.32;101893.31;5011528;28;20129;-66
2022/07/17 02:54:56;;;;;;;11.00;1.92;;;;;;;12.63;48.51;101894.31;5011620;28;20066;-66
2022/07/17 02:57:23;;;;;;;9.40;1.73;;;;;;;12.57;48.61;101907.50;5012413;28;20042;-66
2022/07/17 02:59:49;;;;;;;9.00;1.92;;;;;;;12.62;48.61;101899.81;5012038;28;20080;-66
2022/07/17 03:02:15;;;;;;;5.15;1.85;;;;;;;12.56;48.66;101903.94;5011538;28;20128;-66
2022/07/17 03:04:42;;;;;;;8.40;1.58;;;;;;;12.53;48.69;101903.41;5011796;28;20096;-66
2022/07/17 03:07:09;;;;;;;6.47;2.22;;;;;;;12.51;48.81;101911.59;5012088;28;20050;-67
2022/07/17 03:09:36;;;;;;;10.48;1.45;;;;;;;12.45;49.01;101911.31;5011279;28;20069;-67
2022/07/17 03:12:02;;;;;;;7.68;1.50;;;;;;;12.45;49.22;101914.00;5011965;28;20046;-67
2022/07/17 03:14:29;;;;;;;7.32;1.63;;;;;;;12.39;49.36;101910.06;5011244;28;20445;-67
2022/07/17 03:16:55;;;;;;;7.85;1.67;;;;;;;12.35;49.55;101905.97;5011136;28;20072;-67
2022/07/17 03:19:22;;;;;;;9.13;1.90;;;;;;;12.42;49.23;101907.09;5011733;28;20505;-67
2022/07/17 03:21:49;;;;;;;7.10;1.70;;;;;;;12.40;49.40;101909.06;5011131;28;20491;-67
2022/07/17 03:24:16;;;;;;;15.80;2.45;;;;;;;12.36;49.55;101911.19;5011612;28;20546;-67
2022/07/17 03:26:43;;;;;;;8.80;1.60;;;;;;;12.46;49.34;101905.81;5011888;28;20100;-67
2022/07/17 03:29:10;;;;;;;12.07;2.13;;;;;;;12.41;49.45;101911.59;5007139;28;20085;-66
2022/07/17 03:31:36;;;;;;;8.10;1.75;;;;;;;12.47;49.43;101917.41;5011609;28;20061;-66
2022/07/17 03:34:03;;;;;;;8.00;1.70;;;;;;;12.46;49.27;101919.25;5011925;28;20053;-67
2022/07/17 03:36:30;;;;;;;6.32;1.90;;;;;;;12.52;49.28;101924.09;5010657;28;20052;-67
2022/07/17 03:38:56;;;;;;;13.13;2.30;;;;;;;12.53;49.49;101922.25;5013437;28;20049;-66
2022/07/17 03:41:23;;;;;;;8.55;2.05;;;;;;;12.45;49.60;101928.31;5014373;28;20046;-67
2022/07/17 03:43:49;;;;;;;10.43;2.08;;;;;;;12.50;49.67;101935.97;5015639;28;20133;-67
2022/07/17 03:46:16;;;;;;;10.40;1.60;;;;;;;12.61;49.44;101939.34;5015208;28;20095;-67
2022/07/17 03:48:42;;;;;;;13.90;2.40;;;;;;;12.53;49.53;101941.06;5015576;28;20449;-67
2022/07/17 03:51:09;;;;;;;14.93;1.95;;;;;;;12.57;49.58;101943.34;5014776;28;20477;-67
2022/07/17 03:53:35;;;;;;;6.30;1.25;;;;;;;12.55;49.78;101949.84;5015319;28;20046;-67
2022/07/17 03:56:02;;;;;;;9.95;1.98;;;;;;;12.62;49.32;101953.66;5015081;28;20050;-67
2022/07/17 03:58:29;;;;;;;14.70;2.35;;;;;;;12.61;49.57;101947.44;5015352;28;20080;-67
2022/07/17 04:00:55;;;;;;;13.73;1.77;;;;;;;12.63;49.57;101958.91;5015167;28;20504;-66
2022/07/17 04:03:22;;;;;;;12.00;2.10;;;;;;;12.64;49.59;101960.59;5015557;28;20069;-66
2022/07/17 04:05:48;;;;;;;11.95;1.85;;;;;;;12.59;49.85;101962.00;5012954;28;20468;-66
2022/07/17 04:08:15;;;;;;;14.02;3.88;;;;;;;12.64;50.00;101968.69;5014406;28;20077;-66
2022/07/17 04:10:42;;;;;;;12.98;1.92;;;;;;;12.69;49.89;101976.31;5014807;28;20045;-66
2022/07/17 04:13:09;;;;;;;13.55;2.83;;;;;;;12.77;49.65;101973.81;5013387;28;20069;-66
2022/07/17 04:18:24;;;;;;;6.65;1.65;;;;;;;12.78;49.92;101980.88;5012863;28;20050;-66
2022/07/17 04:20:52;;;;;;;7.65;2.03;;;;;;;12.77;49.98;101984.59;5013632;28;20073;-66
2022/07/17 04:23:18;;;;;;;7.82;2.05;;;;;;;12.80;49.96;101976.22;5014256;28;20124;-66
2022/07/17 04:25:45;;;;;;;7.07;2.20;;;;;;;12.78;49.92;101970.13;5013968;28;20077;-66
2022/07/17 04:28:12;;;;;;;14.93;2.13;;;;;;;12.80;49.82;101969.94;5013234;28;20132;-66
2022/07/17 04:30:39;;;;;;;9.30;1.95;;;;;;;12.80;50.02;101978.91;5013845;28;20125;-66
2022/07/17 04:33:06;;;;;;;8.68;2.15;;;;;;;12.87;50.00;101977.34;5014449;28;20077;-66
2022/07/17 04:35:33;;;;;;;7.53;2.13;;;;;;;12.84;50.05;101976.78;5014685;28;20466;-66
2022/07/17 04:38:00;;;;;;;6.45;2.10;;;;;;;12.90;49.98;101978.03;5014619;28;20126;-66
2022/07/17 04:40:33;;;;;;;12.55;2.88;;;;;;;12.91;49.91;101983.28;5014834;28;20050;-67
2022/07/17 04:42:59;;;;;;;11.10;2.10;;;;;;;12.96;49.95;101990.91;5013220;28;20076;-66
2022/07/17 04:45:26;;;;;;;8.13;1.75;;;;;;;12.96;50.11;101986.38;5013437;28;20128;-67
2022/07/17 04:47:52;;;;;;;9.52;2.17;;;;;;;13.14;49.98;101983.78;5013798;28;20121;-67
2022/07/17 04:50:19;;;;;;;8.80;1.48;;;;;;;13.11;49.77;101992.16;5012224;28;20129;-66
2022/07/17 04:52:46;;;;;;;12.50;2.05;;;;;;;13.09;49.93;101994.16;5013664;28;20080;-67
2022/07/17 04:55:13;;;;;;;10.70;2.00;;;;;;;13.18;49.90;101990.59;5012514;28;20088;-66
2022/07/17 04:57:39;;;;;;;6.78;1.85;;;;;;;13.25;49.83;101985.44;5013615;28;20427;-67
2022/07/17 05:00:08;;;;;;;8.38;1.90;;;;;;;13.31;49.99;101990.25;5012629;28;20136;-67
2022/07/17 05:02:35;;;;;;;13.18;2.25;;;;;;;13.35;49.55;101991.66;5013499;28;20072;-67
2022/07/17 05:05:02;;;;;;;6.43;1.55;;;;;;;13.39;49.61;101995.78;5013730;28;20046;-67
2022/07/17 05:07:29;;;;;;;13.18;2.10;;;;;;;13.34;49.90;101998.88;5012693;28;20137;-67
2022/07/17 05:09:56;;;;;;;12.48;2.28;;;;;;;13.30;49.86;101994.78;5013095;28;20137;-66
2022/07/17 05:12:23;;;;;;;8.25;1.92;;;;;;;13.35;50.12;101997.03;5014554;28;20172;-66
2022/07/17 05:14:49;;;;;;;12.15;2.00;;;;;;;13.62;49.61;101988.13;5014077;28;20142;-66
2022/07/17 05:17:16;;;;;;;8.90;1.67;;;;;;;13.59;49.58;101985.72;5012574;28;20498;-66
2022/07/17 05:19:42;;;;;;;11.40;2.22;;;;;;;13.59;49.70;101989.31;5012798;28;20042;-66
2022/07/17 05:22:09;;;;;;;12.98;2.03;;;;;;;13.55;49.52;101990.56;5013659;28;20077;-66
2022/07/17 05:24:35;;;;;;;9.13;1.60;;;;;;;13.66;49.76;101985.97;5012711;28;20128;-66
2022/07/17 05:27:02;;;;;;;19.83;2.65;;;;;;;13.71;49.37;101987.25;5012766;28;20092;-66
2022/07/17 05:29:29;;;;;;;12.18;2.08;;;;;;;13.72;49.28;101988.94;5013084;28;20125;-66
2022/07/17 05:31:55;;;;;;;8.52;2.03;;;;;;;13.67;49.65;102001.19;5013490;28;20045;-66
2022/07/17 05:34:22;;;;;;;8.88;1.48;;;;;;;13.76;49.23;101998.44;5014148;28;20100;-66
2022/07/17 05:36:49;;;;;;;10.50;2.40;;;;;;;13.81;49.22;102001.56;5013480;28;20049;-66
2022/07/17 05:39:15;;;;;;;11.70;2.03;;;;;;;13.85;49.21;101998.56;5013319;28;20136;-66
2022/07/17 05:41:42;;;;;;;14.15;1.80;;;;;;;14.04;48.46;102003.81;5012517;28;20460;-66
2022/07/17 05:44:08;;;;;;;11.25;2.13;;;;;;;14.17;48.04;102009.72;5011929;28;20553;-66
2022/07/17 05:46:35;;;;;;;11.68;1.80;;;;;;;14.25;47.65;102012.50;5013024;28;20570;-66
2022/07/17 05:49:01;;;;;;;11.30;1.98;;;;;;;14.29;47.46;102007.66;5011864;28;20410;-66
2022/07/17 05:51:28;;;;;;;9.10;2.22;;;;;;;14.35;47.22;102004.31;5012758;28;20107;-66
2022/07/17 05:53:55;;;;;;;12.70;1.95;;;;;;;14.57;46.61;102018.38;5013264;28;20127;-67
2022/07/17 05:56:22;;;;;;;8.15;1.70;;;;;;;14.58;46.38;102023.63;5012909;28;20076;-66
2022/07/17 05:58:49;;;;;;;11.32;1.90;;;;;;;14.69;46.07;102026.06;5012219;28;20140;-67
2022/07/17 06:01:15;;;;;;;22.80;7.65;;;;;;;14.80;45.60;102022.31;5012311;28;22287;-66
2022/07/17 06:03:42;;;;;;;19.83;5.63;;;;;;;14.99;45.31;102037.50;5011295;28;20049;-66
2022/07/17 06:06:08;;;;;;;13.85;1.73;;;;;;;15.10;44.75;102031.00;5009008;28;20482;-66
2022/07/17 06:08:35;;;;;;;8.77;1.95;;;;;;;15.01;44.82;102033.63;5012967;28;20132;-66
2022/07/17 06:11:01;;;;;;;10.23;2.10;;;;;;;15.25;44.96;102030.22;5013197;28;20049;-67
2022/07/17 06:13:28;;;;;;;14.93;2.45;;;;;;;15.24;45.18;102031.25;5012710;28;20041;-65
2022/07/17 06:15:58;;;;;;;10.05;1.65;;;;;;;15.43;46.01;102023.91;5011706;28;20053;-66
2022/07/17 06:18:26;;;;;;;13.05;1.80;;;;;;;15.70;44.72;102028.31;5013791;28;20085;-66
2022/07/17 06:20:53;;;;;;;18.05;2.35;;;;;;;15.76;43.35;102029.53;5013455;28;20045;-69
2022/07/17 06:23:19;;;;;;;14.32;2.28;;;;;;;16.05;43.40;102029.97;5013506;28;20041;-66
2022/07/17 06:25:46;;;;;;;7.55;1.77;;;;;;;16.14;43.04;102028.97;5011802;28;20056;-66
2022/07/17 06:28:12;;;;;;;11.63;2.03;;;;;;;15.93;42.87;102031.28;5011180;28;20054;-67
2022/07/17 06:30:39;;;;;;;10.48;1.50;;;;;;;16.18;42.28;102037.63;5012165;28;20511;-66
2022/07/17 06:33:07;;;;;;;10.75;1.38;;;;;;;16.30;41.91;102032.75;5012102;28;20100;-66
2022/07/17 06:35:34;;;;;;;12.43;1.58;;;;;;;16.13;41.82;102038.13;5012778;28;20041;-67
2022/07/17 06:38:02;;;;;;;9.88;1.80;;;;;;;16.18;41.28;102030.34;5012327;28;20401;-67
2022/07/17 06:40:28;;;;;;;9.57;1.70;;;;;;;16.19;41.32;102033.88;5012327;28;20053;-67
2022/07/17 06:42:55;;;;;;;12.05;1.98;;;;;;;16.23;40.89;102032.56;5012806;28;20045;-67
2022/07/17 06:45:22;;;;;;;12.40;1.73;;;;;;;16.27;41.26;102027.66;5011845;28;20081;-67
2022/07/17 06:47:48;;;;;;;7.72;1.58;;;;;;;16.32;41.14;102030.72;5012547;28;20383;-67
2022/07/17 06:50:15;;;;;;;13.07;2.05;;;;;;;16.54;40.33;102035.53;5012154;28;20081;-67
2022/07/17 06:52:41;;;;;;;8.77;2.00;;;;;;;16.67;40.19;102035.84;5011287;28;20128;-67
2022/07/17 06:55:12;;;;;;;8.50;1.60;;;;;;;16.87;39.75;102040.97;5011334;28;20403;-67
2022/07/17 06:57:39;;;;;;;11.40;1.60;;;;;;;16.61;40.66;102041.13;5012184;28;20360;-67
2022/07/17 07:00:06;;;;;;;12.98;2.20;;;;;;;16.56;40.45;102038.91;5012150;28;20498;-67
2022/07/17 07:02:33;;;;;;;11.75;1.95;;;;;;;16.76;39.74;102038.59;5011471;28;20046;-67
2022/07/17 07:04:59;;;;;;;12.23;1.92;;;;;;;16.84;39.75;102041.28;5010753;28;20116;-67
2022/07/17 07:07:25;;;;;;;9.05;2.22;;;;;;;16.67;39.79;102052.13;5012108;28;20069;-67
2022/07/17 07:09:52;;;;;;;8.57;1.58;;;;;;;16.66;40.23;102049.59;5011904;28;20092;-68
2022/07/17 07:12:19;;;;;;;8.48;1.60;;;;;;;16.39;40.81;102053.41;5011517;28;20129;-68
2022/07/17 07:14:45;;;;;;;8.10;2.28;;;;;;;16.61;40.19;102069.06;5014145;28;20128;-67
2022/07/17 07:17:12;;;;;;;8.32;2.15;;;;;;;16.73;39.80;102063.31;5015444;28;20143;-67
2022/07/17 07:19:38;;;;;;;9.20;1.77;;;;;;;16.82;39.58;102067.72;5015166;28;20128;-67
2022/07/17 07:22:05;;;;;;;7.43;1.50;;;;;;;16.93;39.41;102059.25;5014643;28;20072;-67
2022/07/17 07:24:31;;;;;;;9.45;2.03;;;;;;;16.93;39.57;102059.25;5015683;28;20052;-67
2022/07/17 07:26:58;;;;;;;12.85;2.03;;;;;;;16.58;39.98;102066.69;5015151;28;20045;-67
2022/07/17 07:29:25;;;;;;;7.65;1.80;;;;;;;16.85;39.72;102068.25;5016103;28;20397;-67
2022/07/17 07:31:52;;;;;;;10.57;1.77;;;;;;;16.87;39.44;102073.47;5015183;28;20122;-68
2022/07/17 07:34:19;;;;;;;8.50;1.88;;;;;;;16.88;39.47;102069.75;5015347;28;20492;-67
2022/07/17 07:36:45;;;;;;;9.55;2.28;;;;;;;16.97;39.02;102068.75;5011687;28;20069;-68
2022/07/17 07:39:12;;;;;;;10.93;1.92;;;;;;;16.77;39.60;102068.22;5015283;28;20134;-68
2022/07/17 07:41:38;;;;;;;11.05;2.10;;;;;;;16.75;40.08;102069.41;5014929;28;20137;-71
2022/07/17 07:44:05;;;;;;;10.45;2.25;;;;;;;16.64;39.62;102076.88;5015104;28;20081;-71
2022/07/17 07:46:32;;;;;;;11.57;1.73;;;;;;;16.70;39.41;102074.50;5014572;28;20509;-71
2022/07/17 07:48:58;;;;;;;12.68;2.75;;;;;;;16.60;39.52;102074.63;5015183;28;20050;-71
2022/07/17 07:51:25;;;;;;;14.13;3.50;;;;;;;15.99;40.89;102071.25;5015989;28;20081;-70
2022/07/17 07:54:12;;;;;;;9.43;2.65;;;;;;;16.43;40.07;102077.28;5014547;28;20492;-71
2022/07/17 07:56:38;;;;;;;10.15;2.63;;;;;;;16.62;39.75;102073.47;5014992;28;20128;-71
2022/07/17 07:59:05;;;;;;;10.43;1.83;;;;;;;16.60;39.86;102078.19;5014277;28;20466;-70
2022/07/17 08:01:32;;;;;;;10.00;2.10;;;;;;;16.96;39.30;102077.06;5015129;28;20065;-71
2022/07/17 08:03:58;;;;;;;12.30;2.15;;;;;;;17.14;39.26;102075.00;5015323;28;20049;-71
2022/07/17 08:06:25;;;;;;;8.48;2.00;;;;;;;17.37;38.62;102080.59;5015118;28;20049;-71
2022/07/17 08:08:52;;;;;;;19.27;2.95;;;;;;;17.11;39.21;102081.59;5014206;28;20100;-71
2022/07/17 08:11:18;;;;;;;10.77;2.40;;;;;;;17.19;38.51;102082.63;5014860;28;20065;-71
2022/07/17 08:13:45;;;;;;;13.55;1.98;;;;;;;17.29;38.59;102083.28;5015116;28;20046;-71
2022/07/17 08:16:11;;;;;;;8.93;2.55;;;;;;;16.85;39.51;102080.91;5015022;28;20041;-71
2022/07/17 08:18:38;;;;;;;9.90;1.70;;;;;;;17.09;38.58;102080.94;5014334;28;20046;-71
2022/07/17 08:21:05;;;;;;;11.18;2.13;;;;;;;16.98;38.90;102075.00;5013775;28;20072;-71
2022/07/17 08:23:31;;;;;;;12.55;2.50;;;;;;;17.43;37.81;102084.47;5015330;28;20066;-70
2022/07/17 08:25:58;;;;;;;8.80;1.67;;;;;;;18.41;36.33;102078.69;5013003;28;20458;-70
2022/07/17 08:28:25;;;;;;;11.13;2.25;;;;;;;18.30;36.20;102088.09;5015078;28;20077;-71
2022/07/17 08:30:52;;;;;;;11.50;2.40;;;;;;;18.49;35.73;102079.50;5013521;28;20069;-71
2022/07/17 08:33:18;;;;;;;11.77;2.13;;;;;;;18.33;36.40;102085.00;5014356;28;20088;-70
2022/07/17 08:35:45;;;;;;;9.07;1.85;;;;;;;18.56;36.10;102076.91;5015234;28;20080;-70
2022/07/17 08:38:12;;;;;;;12.73;1.95;;;;;;;19.60;33.83;102090.81;5014853;28;20137;-70
2022/07/17 08:40:39;;;;;;;7.80;1.80;;;;;;;20.39;32.57;102083.69;5015189;28;20081;-70
2022/07/17 08:43:07;;;;;;;12.80;2.35;;;;;;;20.99;31.44;102083.47;5015697;28;20129;-70
2022/07/17 08:45:35;;;;;;;7.72;1.77;;;;;;;20.46;31.97;102082.97;5014696;28;20121;-70
2022/07/17 08:48:12;;;;;;;9.98;1.50;;;;;;;19.98;32.49;102086.13;5015400;28;20057;-71
2022/07/17 08:50:40;;;;;;;7.90;1.75;;;;;;;20.00;32.95;102086.78;5015486;28;20398;-70
2022/07/17 08:53:07;;;;;;;11.45;1.80;;;;;;;19.66;33.89;102090.06;5014950;28;20042;-70
2022/07/17 08:55:34;;;;;;;10.77;1.58;;;;;;;20.03;33.35;102091.00;5006327;28;20092;-70
2022/07/17 08:58:01;;;;;;;12.52;2.20;;;;;;;19.21;34.98;102089.16;5015235;28;20137;-70
2022/07/17 09:00:28;;;;;;;11.40;2.00;;;;;;;19.08;34.77;102080.78;5013817;28;20080;-70
2022/07/17 09:03:04;;;;;;;11.75;2.30;;;;;;;18.94;34.94;102080.56;5015707;28;20038;-70
2022/07/17 09:05:38;;;;;;;10.65;1.85;;;;;;;18.36;36.08;102081.94;5014617;28;20049;-70
2022/07/17 09:08:07;;;;;;;9.82;2.15;;;;;;;18.40;36.02;102087.88;5015121;28;20049;-70
2022/07/17 09:10:42;;;;;;;10.80;1.92;;;;;;;19.06;34.60;102088.28;5015394;28;20128;-70
2022/07/17 09:13:21;;;;;;;12.98;2.47;;;;;;;18.14;36.67;102096.31;5014843;28;20069;-70
2022/07/17 09:15:50;;;;;;;11.77;2.05;;;;;;;19.23;34.42;102093.38;5015337;28;20042;-70
2022/07/17 09:18:18;;;;;;;7.88;1.90;;;;;;;18.43;35.59;102090.22;5014429;28;20064;-70
2022/07/17 09:20:53;;;;;;;12.15;1.70;;;;;;;18.25;36.33;102091.34;5014329;28;20095;-71
2022/07/17 09:23:22;;;;;;;10.27;1.83;;;;;;;18.70;35.39;102086.16;5014910;28;20069;-69
2022/07/17 09:25:52;;;;;;;14.48;1.77;;;;;;;18.40;35.87;102077.84;5014540;28;20054;-70
2022/07/17 09:28:20;;;;;;;7.00;2.33;;;;;;;18.25;36.25;102082.34;5013419;28;20125;-70
2022/07/17 09:30:51;;;;;;;9.00;2.30;;;;;;;18.35;35.81;102087.56;5013872;28;20054;-71
2022/07/17 09:33:23;;;;;;;12.57;2.15;;;;;;;18.32;35.68;102091.50;5013847;28;20129;-70
2022/07/17 09:35:51;;;;;;;9.23;2.10;;;;;;;18.29;36.11;102083.69;5013614;28;20061;-70
2022/07/17 09:38:25;;;;;;;8.95;2.00;;;;;;;18.38;36.07;102079.91;5017883;28;20127;-70
2022/07/17 09:41:11;;;;;;;12.60;2.20;;;;;;;18.00;36.75;102077.03;5015889;28;20129;-71
2022/07/17 09:43:39;;;;;;;9.57;2.10;;;;;;;18.05;36.65;102073.75;5014772;28;20061;-69
2022/07/17 09:46:16;;;;;;;7.93;2.10;;;;;;;17.87;36.65;102076.72;5013262;28;20509;-70
2022/07/17 09:48:47;;;;;;;8.38;2.03;;;;;;;17.66;36.98;102079.19;5014564;28;20038;-70
2022/07/17 09:51:23;;;;;;;13.82;2.03;;;;;;;17.76;37.50;102086.09;5014774;28;20494;-70
2022/07/17 09:53:52;;;;;;;8.77;2.00;;;;;;;18.04;36.70;102085.66;5012875;28;20064;-69
2022/07/17 09:56:21;;;;;;;12.32;2.10;;;;;;;18.67;35.98;102092.78;5023434;28;20158;-69
2022/07/17 09:58:53;;;;;;;11.00;1.98;;;;;;;18.80;35.69;102089.47;5015616;28;20077;-70
2022/07/17 10:01:20;;;;;;;9.20;1.95;;;;;;;18.98;35.57;102081.88;5015565;28;20069;-70
2022/07/17 10:03:53;;;;;;;13.13;2.00;;;;;;;19.40;34.44;102087.78;5014590;28;20075;-70
2022/07/17 10:06:21;;;;;;;11.90;2.20;;;;;;;19.63;34.10;102091.28;5013568;28;20536;-71
2022/07/17 10:08:48;;;;;;;7.13;2.33;;;;;;;20.66;32.33;102090.31;5014653;28;20057;-70
2022/07/17 10:11:19;;;;;;;12.80;2.00;;;;;;;20.25;32.14;102090.03;5014032;28;20046;-70
2022/07/17 10:13:47;;;;;;;10.20;1.85;;;;;;;20.23;32.34;102083.91;5013556;28;20045;-70
2022/07/17 10:16:22;;;;;;;14.27;2.20;;;;;;;20.69;31.91;102075.44;5011917;28;20054;-69
2022/07/17 10:18:52;;;;;;;12.20;1.98;;;;;;;20.43;32.22;102055.03;5012946;28;20065;-71
2022/07/17 10:21:19;;;;;;;9.02;1.92;;;;;;;21.29;31.56;102076.00;5012739;28;20544;-70
2022/07/17 10:24:06;;;;;;;8.32;1.88;;;;;;;21.18;30.91;102071.91;5012618;28;20164;-69
2022/07/17 10:26:38;;;;;;;7.57;2.22;;;;;;;21.62;30.56;102073.47;5012300;28;20088;-69
2022/07/17 10:29:27;;;;;;;9.82;2.70;;;;;;;21.95;29.47;102067.38;5011402;28;20140;-70
2022/07/17 10:31:54;;;;;;;6.65;1.75;;;;;;;21.60;30.02;102072.84;5013589;28;20136;-70
2022/07/17 10:34:42;;;;;;;6.18;1.77;;;;;;;21.69;30.21;102065.31;5012096;28;20399;-69
2022/07/17 10:37:52;;;;;;;8.65;2.20;;;;;;;21.52;30.39;102070.25;5013094;28;20474;-71
2022/07/17 10:40:18;;;;;;;8.32;2.30;;;;;;;21.34;30.95;102068.88;5010910;28;20045;-70
2022/07/17 10:42:49;;;;;;;10.25;2.10;;;;;;;21.81;30.71;102066.47;5012041;28;20042;-70
2022/07/17 10:45:23;;;;;;;11.82;2.00;;;;;;;21.77;30.65;102062.41;5011262;28;20052;-70
2022/07/17 10:47:49;;;;;;;9.07;2.13;;;;;;;21.80;30.68;102062.03;5011259;28;20123;-70
2022/07/17 10:50:18;;;;;;;10.20;2.45;;;;;;;22.38;29.84;102059.72;5011948;28;20065;-70
2022/07/17 10:52:56;;;;;;;10.20;2.60;;;;;;;22.40;29.81;102056.81;5013536;28;20133;-70
2022/07/17 10:55:23;;;;;;;8.32;1.88;;;;;;;22.94;28.88;102064.03;5012656;28;20442;-70
2022/07/17 10:57:49;;;;;;;9.77;2.33;;;;;;;22.25;30.17;102066.00;5012885;28;20103;-71
2022/07/17 11:00:17;;;;;;;8.05;1.90;;;;;;;22.78;29.19;102057.09;5012398;28;20066;-73
2022/07/17 11:02:44;;;;;;;11.75;2.25;;;;;;;22.37;29.87;102054.50;5011589;28;20065;-72
2022/07/17 11:05:12;;;;;;;13.27;2.63;;;;;;;22.53;29.69;102052.25;5012609;28;20046;-72
2022/07/17 11:07:58;;;;;;;16.70;4.05;;;;;;;21.63;30.76;102053.28;5013878;28;20082;-72
2022/07/17 11:10:27;;;;;;;9.13;2.45;;;;;;;21.16;31.55;102043.97;5010555;28;20050;-72
2022/07/17 11:12:55;;;;;;;14.07;2.63;;;;;;;20.85;32.09;102056.06;5014153;28;20121;-72
2022/07/17 11:15:22;;;;;;;10.38;2.10;;;;;;;20.74;32.54;102058.50;5012162;28;20129;-72
2022/07/17 11:17:49;;;;;;;8.95;2.05;;;;;;;20.99;31.62;102053.47;5014610;28;20046;-72
2022/07/17 11:20:16;;;;;;;8.45;2.03;;;;;;;21.10;31.56;102059.22;5014365;28;20076;-72
2022/07/17 11:22:43;;;;;;;8.93;2.00;;;;;;;21.23;31.51;102049.50;5012261;28;20046;-71
2022/07/17 11:25:11;;;;;;;8.98;2.15;;;;;;;21.14;31.78;102051.50;5011607;28;20053;-72
2022/07/17 11:27:38;;;;;;;14.38;2.45;;;;;;;20.49;32.88;102063.47;5010638;28;20541;-72
2022/07/17 11:30:11;;;;;;;10.13;2.30;;;;;;;21.10;31.98;102061.94;5013301;28;20072;-72
2022/07/17 11:32:40;;;;;;;12.98;2.47;;;;;;;21.35;30.88;102048.72;5011906;28;20129;-73